Time;durP1;ratioP1;P1;durP2;ratioP2;P2;SDS_P1;SDS_P2;PMS_P1;PMS_P2;Temp;Humidity;BMP_temperature;BMP_pressure;BME280_temperature;BME280_humidity;BME280_pressure;Samples;Min_cycle;Max_cycle;Signal;HPM_P1;HPM_P2
2023/06/26 00:01:12;;;;;;;6.10;4.32;;;;;;;25.73;73.44;101293.38;5046579;28;20099;-58
2023/06/26 00:03:37;;;;;;;7.20;4.22;;;;;;;25.59;74.50;101305.41;5045941;28;20025;-61
2023/06/26 00:06:03;;;;;;;4.97;4.18;;;;;;;25.58;74.92;101297.44;5045450;28;20645;-58
2023/06/26 00:08:28;;;;;;;5.85;4.25;;;;;;;25.47;76.79;101304.66;5043774;28;20028;-59
2023/06/26 00:10:54;;;;;;;7.93;4.80;;;;;;;25.37;78.14;101301.09;5046152;28;20384;-56
2023/06/26 00:13:19;;;;;;;6.55;4.43;;;;;;;25.10;81.02;101307.97;5047215;28;20033;-58
2023/06/26 00:15:45;;;;;;;6.97;4.25;;;;;;;25.03;82.38;101323.00;5045781;28;20025;-61
2023/06/26 00:18:10;;;;;;;6.15;4.38;;;;;;;24.84;84.13;101305.72;5046560;28;20481;-57
2023/06/26 00:20:36;;;;;;;9.88;4.63;;;;;;;24.88;85.16;101317.97;5045222;28;20132;-57
2023/06/26 00:23:03;;;;;;;5.22;4.72;;;;;;;24.79;86.17;101311.53;5045807;28;20025;-58
2023/06/26 00:25:28;;;;;;;6.57;4.60;;;;;;;24.68;88.04;101328.63;5046916;28;20099;-57
2023/06/26 00:27:54;;;;;;;7.32;5.18;;;;;;;24.63;90.08;101328.19;5046110;28;20021;-59
2023/06/26 00:30:19;;;;;;;6.68;5.18;;;;;;;24.35;92.45;101325.19;5027814;28;20045;-60
2023/06/26 00:32:45;;;;;;;7.65;4.85;;;;;;;24.27;93.51;101331.22;5046830;28;20031;-58
2023/06/26 00:35:10;;;;;;;8.95;4.47;;;;;;;24.26;93.63;101328.66;5045087;28;20025;-57
2023/06/26 00:37:35;;;;;;;10.13;4.93;;;;;;;24.02;95.14;101327.00;5045781;28;20064;-62
2023/06/26 00:40:01;;;;;;;12.18;4.72;;;;;;;23.93;95.96;101334.84;5054025;28;20443;-58
2023/06/26 00:42:26;;;;;;;12.88;5.13;;;;;;;23.76;97.64;101327.34;5032140;28;20047;-58
2023/06/26 00:44:52;;;;;;;17.10;5.15;;;;;;;23.71;97.86;101333.09;5044669;28;20029;-58
2023/06/26 00:47:17;;;;;;;10.88;5.15;;;;;;;23.61;98.85;101335.69;5050261;28;20550;-60
2023/06/26 00:49:43;;;;;;;10.13;4.45;;;;;;;23.60;99.25;101340.22;5048345;28;20112;-57
2023/06/26 00:52:08;;;;;;;8.15;4.63;;;;;;;23.44;100.00;101342.44;5049182;28;20039;-56
2023/06/26 00:54:34;;;;;;;7.30;4.07;;;;;;;23.42;100.00;101339.03;5031020;28;20032;-59
2023/06/26 00:56:59;;;;;;;13.45;5.35;;;;;;;23.21;100.00;101348.66;5030328;28;20064;-61
2023/06/26 00:59:24;;;;;;;13.88;4.47;;;;;;;23.20;100.00;101352.34;5050365;28;20043;-55
2023/06/26 01:01:50;;;;;;;9.50;4.50;;;;;;;23.18;100.00;101350.78;5031633;28;20040;-64
2023/06/26 01:04:18;;;;;;;12.30;4.45;;;;;;;23.16;100.00;101344.66;5047479;28;20136;-60
2023/06/26 01:06:48;;;;;;;10.82;4.43;;;;;;;23.03;100.00;101342.09;5049567;28;20492;-55
2023/06/26 01:09:16;;;;;;;11.43;4.40;;;;;;;23.02;100.00;101351.97;5049148;28;20021;-62
2023/06/26 01:11:41;;;;;;;16.33;4.63;;;;;;;22.91;100.00;101350.13;5048968;28;20024;-61
2023/06/26 01:14:07;;;;;;;16.10;4.53;;;;;;;22.96;100.00;101350.63;5049927;28;20028;-58
2023/06/26 01:16:32;;;;;;;14.98;4.30;;;;;;;22.92;100.00;101342.94;5049165;28;20028;-55
2023/06/26 01:18:58;;;;;;;14.75;4.70;;;;;;;22.88;100.00;101354.91;5030453;28;20300;-55
2023/06/26 01:21:28;;;;;;;10.30;4.32;;;;;;;22.69;100.00;101340.22;5031216;28;20049;-58
2023/06/26 01:24:20;;;;;;;17.95;4.90;;;;;;;22.70;100.00;101347.31;5031392;28;20029;-58
2023/06/26 01:26:46;;;;;;;14.93;5.32;;;;;;;22.54;100.00;101355.66;5032440;28;20163;-58
2023/06/26 01:29:14;;;;;;;11.32;4.53;;;;;;;22.65;100.00;101349.50;5030973;28;20389;-58
2023/06/26 01:31:40;;;;;;;15.63;5.40;;;;;;;22.62;100.00;101350.59;5048149;28;20076;-61
2023/06/26 01:34:06;;;;;;;11.93;4.45;;;;;;;22.62;100.00;101349.72;5030669;28;20470;-61
2023/06/26 01:36:31;;;;;;;13.75;4.85;;;;;;;22.65;100.00;101347.66;5048228;28;20025;-56
2023/06/26 01:38:56;;;;;;;14.90;4.88;;;;;;;22.63;100.00;101338.88;5029640;28;20428;-58
2023/06/26 01:41:22;;;;;;;11.88;4.97;;;;;;;22.64;100.00;101348.66;5049633;28;20027;-58
2023/06/26 01:44:05;;;;;;;12.82;4.53;;;;;;;22.62;100.00;101334.47;5031101;28;20108;-59
2023/06/26 01:47:01;;;;;;;14.60;5.15;;;;;;;22.58;100.00;101343.75;5047907;28;20024;-55
2023/06/26 01:49:54;;;;;;;13.93;4.55;;;;;;;22.55;100.00;101346.66;5027608;28;20037;-57
2023/06/26 01:52:56;;;;;;;17.30;4.63;;;;;;;22.45;100.00;101350.03;5029153;28;20669;-56
2023/06/26 01:55:41;;;;;;;14.90;4.50;;;;;;;22.49;100.00;101345.28;5049307;28;20036;-56
2023/06/26 01:58:07;;;;;;;16.90;4.68;;;;;;;22.49;100.00;101350.66;5029965;28;20025;-60
2023/06/26 02:00:33;;;;;;;15.25;4.53;;;;;;;22.43;100.00;101346.59;5030054;28;20425;-59
2023/06/26 02:02:58;;;;;;;11.23;4.57;;;;;;;22.32;100.00;101342.06;5031016;28;20036;-58
2023/06/26 02:05:24;;;;;;;14.50;4.63;;;;;;;22.33;100.00;101345.59;5047589;28;20064;-59
2023/06/26 02:07:51;;;;;;;10.55;4.35;;;;;;;22.28;100.00;101348.66;5048130;28;20027;-57
2023/06/26 02:10:16;;;;;;;13.73;4.70;;;;;;;22.33;100.00;101345.59;5049270;28;20097;-58
2023/06/26 02:12:42;;;;;;;14.85;5.20;;;;;;;22.29;100.00;101349.47;5047919;28;20394;-60
2023/06/26 02:15:08;;;;;;;16.55;5.22;;;;;;;22.28;100.00;101370.13;5047162;28;20071;-55
2023/06/26 02:17:34;;;;;;;13.73;4.75;;;;;;;22.18;100.00;101372.63;5048634;28;20106;-56
2023/06/26 02:19:59;;;;;;;13.98;4.65;;;;;;;22.29;100.00;101349.47;5046850;28;20500;-57
2023/06/26 02:22:25;;;;;;;18.52;4.70;;;;;;;22.31;100.00;101337.66;5047281;28;20363;-60
2023/06/26 02:24:50;;;;;;;18.70;4.72;;;;;;;22.28;100.00;101361.19;5047993;28;20067;-64
2023/06/26 02:27:15;;;;;;;12.20;5.18;;;;;;;22.24;100.00;101365.09;5047262;28;20029;-58
2023/06/26 02:29:42;;;;;;;14.48;4.90;;;;;;;22.13;100.00;101377.50;5046432;28;20392;-58
2023/06/26 02:32:08;;;;;;;15.80;4.60;;;;;;;22.20;100.00;101372.50;5046341;28;20053;-58
2023/06/26 02:34:34;;;;;;;14.30;4.97;;;;;;;22.11;100.00;101373.19;5046540;28;20044;-57
2023/06/26 02:37:00;;;;;;;14.95;4.90;;;;;;;22.13;100.00;101377.50;5045696;28;20044;-56
2023/06/26 02:39:26;;;;;;;16.80;5.43;;;;;;;22.06;100.00;101376.22;5046822;28;20116;-58
2023/06/26 02:41:51;;;;;;;16.63;5.50;;;;;;;22.05;100.00;101385.25;5046309;28;20137;-59
2023/06/26 02:44:16;;;;;;;12.07;4.68;;;;;;;22.10;100.00;101375.03;5047131;28;20021;-58
2023/06/26 02:46:42;;;;;;;20.55;5.28;;;;;;;22.05;100.00;101380.75;5047352;28;20040;-59
2023/06/26 02:49:07;;;;;;;15.48;5.30;;;;;;;22.06;100.00;101392.31;5045628;28;20108;-61
2023/06/26 02:51:33;;;;;;;15.50;5.05;;;;;;;22.04;100.00;101403.19;5046962;28;20029;-59
2023/06/26 02:53:59;;;;;;;16.42;5.20;;;;;;;21.94;100.00;101397.63;5047024;28;20023;-56
2023/06/26 02:56:28;;;;;;;13.27;4.85;;;;;;;21.89;100.00;101389.09;5046061;28;20112;-59
2023/06/26 02:58:54;;;;;;;22.38;5.38;;;;;;;21.89;100.00;101390.91;5044123;28;20052;-56
2023/06/26 03:01:20;;;;;;;15.20;5.47;;;;;;;21.78;100.00;101394.34;5047354;28;20033;-58
2023/06/26 03:03:46;;;;;;;14.57;4.93;;;;;;;21.70;100.00;101392.19;5046913;28;20021;-55
2023/06/26 03:06:12;;;;;;;16.52;5.43;;;;;;;21.58;100.00;101402.84;5047006;28;20039;-57
2023/06/26 03:08:39;;;;;;;21.13;5.80;;;;;;;21.53;100.00;101421.13;5045653;28;20112;-54
2023/06/26 03:11:05;;;;;;;19.10;5.80;;;;;;;21.42;100.00;101418.31;5046013;28;20115;-59
2023/06/26 03:13:30;;;;;;;19.65;5.85;;;;;;;21.28;100.00;101419.31;5046738;28;20029;-62
2023/06/26 03:15:56;;;;;;;16.63;5.38;;;;;;;21.30;100.00;101417.38;5046588;28;20492;-58
2023/06/26 03:18:21;;;;;;;14.75;5.40;;;;;;;21.13;100.00;101421.25;5046541;28;20033;-58
2023/06/26 03:20:48;;;;;;;23.13;5.22;;;;;;;21.23;100.00;101424.13;5046556;28;20029;-57
2023/06/26 03:23:13;;;;;;;20.92;5.88;;;;;;;21.23;100.00;101422.31;5045695;28;20441;-59
2023/06/26 03:25:38;;;;;;;19.10;6.00;;;;;;;21.17;100.00;101428.09;5047364;28;20032;-56
2023/06/26 03:28:04;;;;;;;21.90;5.85;;;;;;;21.11;100.00;101429.41;5028447;28;20029;-55
2023/06/26 03:30:29;;;;;;;19.42;5.68;;;;;;;21.04;100.00;101423.59;5045758;28;20052;-58
2023/06/26 03:32:54;;;;;;;18.33;5.05;;;;;;;21.05;100.00;101425.34;5047627;28;20032;-58
2023/06/26 03:35:20;;;;;;;19.80;5.82;;;;;;;21.10;100.00;101424.97;5046491;28;20033;-60
2023/06/26 03:37:45;;;;;;;16.67;5.20;;;;;;;20.93;100.00;101427.03;5028084;28;20025;-55
2023/06/26 03:40:11;;;;;;;17.25;5.78;;;;;;;20.99;100.00;101441.81;5047303;28;20167;-59
2023/06/26 03:42:36;;;;;;;18.08;5.00;;;;;;;20.93;100.00;101442.25;5028607;28;20071;-57
2023/06/26 03:45:02;;;;;;;16.73;5.55;;;;;;;20.95;100.00;101434.97;5045621;28;20645;-57
2023/06/26 03:47:27;;;;;;;16.25;5.13;;;;;;;20.86;100.00;101435.56;5047014;28;20033;-58
2023/06/26 03:49:52;;;;;;;11.63;4.60;;;;;;;20.88;100.00;101447.00;5045031;28;20104;-59
2023/06/26 03:52:18;;;;;;;15.63;5.65;;;;;;;20.85;100.00;101440.06;5045474;28;20024;-57
2023/06/26 03:54:43;;;;;;;13.18;4.60;;;;;;;20.85;100.00;101450.75;5047256;28;20032;-56
2023/06/26 03:57:09;;;;;;;14.40;5.30;;;;;;;20.82;100.00;101456.31;5045758;28;20025;-57
2023/06/26 03:59:36;;;;;;;15.27;4.93;;;;;;;20.86;100.00;101457.81;5045872;28;20025;-58
2023/06/26 04:02:01;;;;;;;16.80;5.10;;;;;;;20.82;100.00;101451.84;5034142;28;20049;-58
2023/06/26 04:04:27;;;;;;;17.15;4.95;;;;;;;20.75;100.00;101466.59;5025421;28;20105;-60
2023/06/26 04:06:52;;;;;;;19.02;6.00;;;;;;;20.84;100.00;101459.78;5042064;28;20029;-57
2023/06/26 04:09:19;;;;;;;17.27;4.90;;;;;;;20.84;100.00;101463.28;5029233;28;20481;-57
2023/06/26 04:11:44;;;;;;;15.07;4.78;;;;;;;20.75;100.00;101468.41;5046543;28;20100;-56
2023/06/26 04:14:10;;;;;;;13.25;4.70;;;;;;;20.71;100.00;101473.97;5045708;28;20125;-55
2023/06/26 04:16:35;;;;;;;16.25;4.82;;;;;;;20.65;100.00;101485.09;5047125;28;20059;-60
2023/06/26 04:19:02;;;;;;;17.10;4.63;;;;;;;20.58;100.00;101487.34;5045552;28;20473;-60
2023/06/26 04:21:27;;;;;;;11.40;4.53;;;;;;;20.51;100.00;101491.38;5049793;28;20104;-59
2023/06/26 04:23:53;;;;;;;15.82;4.80;;;;;;;20.56;100.00;101493.75;5049200;28;20458;-59
2023/06/26 04:26:18;;;;;;;7.38;4.13;;;;;;;20.58;100.00;101494.50;5051198;28;20630;-56
2023/06/26 04:28:43;;;;;;;10.25;4.22;;;;;;;20.57;100.00;101503.50;5048860;28;20033;-56
2023/06/26 04:31:09;;;;;;;11.18;4.57;;;;;;;20.61;100.00;101507.69;5050259;28;20065;-59
2023/06/26 04:33:36;;;;;;;14.18;4.80;;;;;;;20.55;100.00;101510.75;5042232;28;20117;-55
2023/06/26 04:36:05;;;;;;;10.75;3.88;;;;;;;20.62;100.00;101498.69;5045405;28;20096;-59
2023/06/26 04:38:33;;;;;;;12.43;4.28;;;;;;;20.71;100.00;101499.91;5050268;28;20048;-55
2023/06/26 04:41:00;;;;;;;9.68;3.72;;;;;;;20.73;100.00;101505.13;5050497;28;20033;-63
2023/06/26 04:43:25;;;;;;;12.43;3.97;;;;;;;20.70;100.00;101516.91;5049944;28;20130;-56
2023/06/26 04:45:50;;;;;;;9.18;3.58;;;;;;;20.76;100.00;101510.28;5050369;28;20021;-63
2023/06/26 04:48:16;;;;;;;7.80;3.80;;;;;;;20.73;100.00;101513.16;5050809;28;20108;-62
2023/06/26 04:50:42;;;;;;;12.25;3.50;;;;;;;20.74;100.00;101514.91;5049087;28;20079;-59
2023/06/26 04:53:07;;;;;;;10.70;3.75;;;;;;;20.84;100.00;101519.53;5045193;28;20044;-55
2023/06/26 04:55:32;;;;;;;8.85;2.72;;;;;;;20.92;100.00;101519.03;5052166;28;20499;-56
2023/06/26 04:57:58;;;;;;;10.13;3.50;;;;;;;20.82;100.00;101517.91;5049934;28;20029;-60
2023/06/26 05:00:24;;;;;;;11.00;3.40;;;;;;;20.82;100.00;101526.81;5030859;28;20074;-56
2023/06/26 05:03:00;;;;;;;10.65;3.35;;;;;;;20.90;100.00;101534.38;5032064;28;20210;-61
2023/06/26 05:05:27;;;;;;;9.15;3.25;;;;;;;20.95;100.00;101529.56;5049225;28;20029;-55
2023/06/26 05:07:54;;;;;;;6.72;3.45;;;;;;;20.86;100.00;101531.97;5049512;28;20040;-56
2023/06/26 05:10:19;;;;;;;11.27;3.40;;;;;;;20.88;100.00;101540.75;5050658;28;20095;-58
2023/06/26 05:12:44;;;;;;;8.05;2.50;;;;;;;20.98;100.00;101547.22;5049703;28;20043;-57
2023/06/26 05:15:10;;;;;;;9.13;3.40;;;;;;;20.99;100.00;101551.66;5041441;28;20890;-61
2023/06/26 05:17:35;;;;;;;7.05;3.08;;;;;;;20.77;100.00;101552.19;5035138;28;20021;-60
2023/06/26 05:20:00;;;;;;;7.25;2.83;;;;;;;20.88;100.00;101557.69;5036275;28;20048;-58
2023/06/26 05:22:26;;;;;;;7.38;3.40;;;;;;;20.78;100.00;101556.59;5029985;28;20084;-59
2023/06/26 05:24:54;;;;;;;10.07;3.60;;;;;;;20.88;100.00;101562.16;5039592;28;20473;-58
2023/06/26 05:27:21;;;;;;;8.10;3.25;;;;;;;20.94;100.00;101560.00;5040271;28;20110;-63
2023/06/26 05:29:48;;;;;;;10.13;3.97;;;;;;;20.89;100.00;101570.09;5040682;28;20101;-55
2023/06/26 05:32:17;;;;;;;5.40;3.17;;;;;;;20.73;100.00;101572.94;5031683;28;20048;-54
2023/06/26 05:34:44;;;;;;;5.07;3.47;;;;;;;20.77;100.00;101582.50;5037871;28;20021;-58
2023/06/26 05:37:14;;;;;;;6.00;3.10;;;;;;;20.82;100.00;101577.72;5045756;28;20028;-59
2023/06/26 05:39:40;;;;;;;9.52;3.60;;;;;;;20.84;100.00;101593.69;5014854;28;20037;-60
2023/06/26 05:42:06;;;;;;;6.80;3.33;;;;;;;20.86;100.00;101601.63;5047025;28;20031;-53
2023/06/26 05:44:31;;;;;;;7.68;3.42;;;;;;;21.04;100.00;101596.88;5043483;28;20068;-58
2023/06/26 05:46:57;;;;;;;9.77;2.78;;;;;;;21.27;100.00;101599.81;5040041;28;20370;-58
2023/06/26 05:49:22;;;;;;;13.68;3.58;;;;;;;21.65;100.00;101606.22;5026944;28;20037;-60
2023/06/26 05:51:48;;;;;;;7.80;2.97;;;;;;;21.56;100.00;101611.25;5027689;28;20374;-60
2023/06/26 05:54:13;;;;;;;8.00;3.13;;;;;;;21.57;100.00;101617.47;5036407;28;20029;-60
2023/06/26 05:56:39;;;;;;;5.82;2.40;;;;;;;21.37;100.00;101622.34;5047310;28;20033;-59
2023/06/26 05:59:05;;;;;;;5.68;2.22;;;;;;;21.18;100.00;101620.94;5012414;28;20035;-55
2023/06/26 06:01:33;;;;;;;6.07;2.17;;;;;;;20.96;100.00;101625.03;5016830;28;20033;-58
2023/06/26 06:03:58;;;;;;;3.95;2.20;;;;;;;20.99;100.00;101623.13;5029466;28;20159;-58
2023/06/26 06:06:24;;;;;;;10.00;2.10;;;;;;;20.91;100.00;101616.44;5048244;28;20063;-56
2023/06/26 06:08:49;;;;;;;7.15;2.28;;;;;;;20.92;100.00;101626.19;5042719;28;20033;-59
2023/06/26 06:11:15;;;;;;;7.93;1.98;;;;;;;20.76;100.00;101634.34;5035746;28;20036;-60
2023/06/26 06:13:40;;;;;;;16.27;2.10;;;;;;;20.64;100.00;101635.13;5040636;28;20046;-58
2023/06/26 06:16:06;;;;;;;4.93;1.90;;;;;;;20.80;100.00;101635.00;5039959;28;20048;-57
2023/06/26 06:18:31;;;;;;;4.65;1.95;;;;;;;20.72;100.00;101638.19;5045538;28;20021;-56
2023/06/26 06:20:56;;;;;;;5.85;1.90;;;;;;;20.71;100.00;101640.00;5027387;28;20101;-58
2023/06/26 06:23:23;;;;;;;9.00;1.88;;;;;;;20.59;100.00;101648.84;5026857;28;20029;-60
2023/06/26 06:25:48;;;;;;;10.82;1.90;;;;;;;20.66;100.00;101655.50;5039225;28;20064;-60
2023/06/26 06:28:16;;;;;;;7.07;2.30;;;;;;;20.82;100.00;101692.00;5047266;28;20458;-59
2023/06/26 06:30:41;;;;;;;7.10;2.22;;;;;;;20.96;100.00;101672.41;5042970;28;20484;-59
2023/06/26 06:33:06;;;;;;;6.97;1.55;;;;;;;20.79;100.00;101671.63;5045445;28;20049;-59
2023/06/26 06:35:32;;;;;;;7.88;1.65;;;;;;;20.86;100.00;101666.72;5044664;28;20028;-63
2023/06/26 06:37:57;;;;;;;5.60;1.75;;;;;;;20.75;100.00;101682.63;5015277;28;20053;-60
2023/06/26 06:40:23;;;;;;;5.28;1.63;;;;;;;20.56;100.00;101686.50;5037812;28;20370;-60
2023/06/26 06:42:48;;;;;;;7.75;1.77;;;;;;;20.58;100.00;101679.22;5035875;28;20017;-56
2023/06/26 06:45:13;;;;;;;8.55;1.77;;;;;;;20.47;100.00;101692.44;5030592;28;20493;-58
2023/06/26 06:47:39;;;;;;;8.57;1.85;;;;;;;20.50;100.00;101685.03;5037455;28;20029;-59
2023/06/26 06:50:08;;;;;;;4.55;1.50;;;;;;;20.50;100.00;101700.28;5018936;28;20117;-57
2023/06/26 06:52:40;;;;;;;5.70;1.60;;;;;;;20.46;100.00;101702.25;5037448;28;20604;-59
2023/06/26 06:55:08;;;;;;;3.83;1.60;;;;;;;20.50;100.00;101702.94;5036066;28;20029;-58
2023/06/26 06:57:38;;;;;;;9.00;1.63;;;;;;;20.55;100.00;101695.47;5035341;28;20032;-59
2023/06/26 07:00:05;;;;;;;8.75;1.90;;;;;;;20.58;100.00;101708.66;5037445;28;20114;-60
2023/06/26 07:02:30;;;;;;;7.32;1.88;;;;;;;20.69;100.00;101699.97;5036910;28;20060;-58
2023/06/26 07:04:55;;;;;;;8.43;1.85;;;;;;;20.89;100.00;101712.06;5033261;28;20495;-61
2023/06/26 07:07:21;;;;;;;8.50;1.98;;;;;;;20.98;100.00;101710.66;5027622;28;20042;-60
2023/06/26 07:09:46;;;;;;;6.00;1.92;;;;;;;21.10;100.00;101706.31;5027014;28;20028;-59
2023/06/26 07:12:11;;;;;;;6.30;1.63;;;;;;;21.25;99.62;101707.13;5025862;28;20110;-58
2023/06/26 07:14:37;;;;;;;14.32;2.10;;;;;;;21.19;99.92;101705.72;5031703;28;20023;-60
2023/06/26 07:17:02;;;;;;;10.00;2.35;;;;;;;21.27;100.00;101715.94;5045775;28;20060;-59
2023/06/26 07:19:27;;;;;;;4.55;1.65;;;;;;;21.30;99.32;101717.53;5045567;28;20087;-56
2023/06/26 07:21:53;;;;;;;9.18;2.03;;;;;;;21.26;99.70;101722.25;5046636;28;20115;-56
2023/06/26 07:24:18;;;;;;;5.70;1.70;;;;;;;21.26;99.03;101721.41;5047777;28;20036;-61
2023/06/26 07:26:44;;;;;;;6.70;1.50;;;;;;;21.08;98.70;101737.72;5012259;28;20425;-60
2023/06/26 07:29:09;;;;;;;5.93;2.00;;;;;;;21.19;99.83;101737.03;5032968;28;20101;-60
2023/06/26 07:31:34;;;;;;;7.85;2.28;;;;;;;21.06;100.00;101740.50;5027408;28;20106;-58
2023/06/26 07:34:00;;;;;;;10.50;2.47;;;;;;;20.96;100.00;101742.03;5026383;28;20168;-60
2023/06/26 07:36:25;;;;;;;6.95;1.83;;;;;;;21.01;100.00;101749.78;5043475;28;20037;-59
2023/06/26 07:38:51;;;;;;;5.30;1.80;;;;;;;21.03;100.00;101751.41;5047028;28;20032;-62
2023/06/26 07:41:16;;;;;;;5.55;1.70;;;;;;;21.08;100.00;101756.47;5041760;28;20036;-58
2023/06/26 07:43:41;;;;;;;11.07;2.15;;;;;;;21.05;98.32;101752.19;5029798;28;20504;-60
2023/06/26 07:46:07;;;;;;;7.43;2.00;;;;;;;21.25;98.84;101746.47;5026726;28;20037;-58
2023/06/26 07:48:32;;;;;;;5.65;1.70;;;;;;;21.25;99.79;101763.41;5043049;28;20040;-57
2023/06/26 07:50:57;;;;;;;6.95;2.20;;;;;;;21.13;98.70;101748.97;5028308;28;20025;-64
2023/06/26 07:53:23;;;;;;;5.57;1.90;;;;;;;21.09;98.95;101755.50;5046429;28;20116;-56
2023/06/26 07:55:48;;;;;;;14.18;2.10;;;;;;;21.00;99.73;101759.63;5050978;28;20024;-56
2023/06/26 07:58:13;;;;;;;6.32;1.70;;;;;;;21.08;99.22;101770.72;5049676;28;20053;-60
2023/06/26 08:00:40;;;;;;;5.45;1.70;;;;;;;21.14;99.25;101761.44;5045312;28;20017;-62
2023/06/26 08:03:05;;;;;;;12.85;2.22;;;;;;;21.26;98.33;101765.16;5029521;28;20060;-58
2023/06/26 08:05:30;;;;;;;6.28;1.88;;;;;;;21.10;98.31;101765.25;5028088;28;20120;-53
2023/06/26 08:07:56;;;;;;;4.15;1.83;;;;;;;21.04;99.52;101784.44;5029675;28;20036;-58
2023/06/26 08:10:21;;;;;;;3.85;1.60;;;;;;;21.14;95.85;101788.25;5029344;28;20026;-58
2023/06/26 08:12:48;;;;;;;8.73;2.17;;;;;;;21.28;94.85;101778.44;5029219;28;20029;-60
2023/06/26 08:15:14;;;;;;;14.13;2.20;;;;;;;21.31;95.71;101780.94;5037721;28;20029;-59
2023/06/26 08:17:39;;;;;;;7.90;1.85;;;;;;;21.10;94.31;101792.03;5049595;28;20052;-58
2023/06/26 08:20:07;;;;;;;5.90;2.03;;;;;;;21.05;94.65;101786.13;5048727;28;20034;-58
2023/06/26 08:22:33;;;;;;;11.27;1.95;;;;;;;20.89;95.65;101784.38;5020699;28;20086;-57
2023/06/26 08:24:58;;;;;;;5.25;1.90;;;;;;;20.91;97.68;101787.88;5038783;28;20036;-57
2023/06/26 08:27:23;;;;;;;7.80;1.83;;;;;;;20.97;96.43;101791.97;5041936;28;20025;-59
2023/06/26 08:29:49;;;;;;;6.40;1.67;;;;;;;21.17;95.68;101788.03;5039720;28;20100;-57
2023/06/26 08:32:14;;;;;;;5.50;1.60;;;;;;;21.38;94.54;101781.38;5037284;28;20553;-59
2023/06/26 08:34:39;;;;;;;4.90;2.00;;;;;;;21.55;93.98;101796.38;5038432;28;20041;-59
2023/06/26 08:37:05;;;;;;;6.00;1.85;;;;;;;21.84;91.93;101796.28;5049007;28;20078;-56
2023/06/26 08:39:31;;;;;;;7.05;1.92;;;;;;;21.62;90.63;101786.09;5048768;28;20025;-60
2023/06/26 08:41:56;;;;;;;10.80;2.40;;;;;;;21.43;91.83;101800.72;5047995;28;20028;-59
2023/06/26 08:44:24;;;;;;;6.43;1.67;;;;;;;21.52;88.74;101820.69;5048663;28;20033;-60
2023/06/26 08:46:51;;;;;;;3.75;1.65;;;;;;;21.43;87.66;101809.59;5039310;28;20489;-58
2023/06/26 08:49:35;;;;;;;4.63;1.77;;;;;;;21.57;86.88;101802.47;5040434;28;20037;-59
2023/06/26 08:52:15;;;;;;;4.55;1.92;;;;;;;21.74;87.52;101812.09;5039096;28;20036;-59
2023/06/26 08:54:45;;;;;;;5.38;1.70;;;;;;;21.55;88.57;101812.47;5029567;28;20037;-58
2023/06/26 08:57:11;;;;;;;6.45;1.85;;;;;;;21.58;86.26;101820.28;5030081;28;20026;-56
2023/06/26 08:59:36;;;;;;;9.85;1.85;;;;;;;21.52;84.62;101829.59;5011711;28;20409;-59
2023/06/26 09:02:02;;;;;;;7.75;1.80;;;;;;;21.44;85.07;101811.34;5029928;28;20045;-60
2023/06/26 09:04:28;;;;;;;4.65;1.50;;;;;;;21.70;84.46;101811.44;5028303;28;20031;-60
2023/06/26 09:06:53;;;;;;;5.15;1.63;;;;;;;21.67;83.96;101826.88;5040102;28;20108;-56
2023/06/26 09:09:18;;;;;;;6.53;1.75;;;;;;;21.67;83.57;101833.09;5027754;28;20036;-63
2023/06/26 09:11:44;;;;;;;6.90;1.60;;;;;;;21.56;83.81;101828.44;5029575;28;20447;-59
2023/06/26 09:14:10;;;;;;;10.30;2.00;;;;;;;21.53;84.57;101828.66;5011196;28;20145;-62
2023/06/26 09:16:44;;;;;;;8.07;1.75;;;;;;;21.33;84.57;101833.47;5013882;28;20056;-59
2023/06/26 09:19:11;;;;;;;6.70;1.60;;;;;;;21.42;84.76;101832.00;5049307;28;20029;-61
2023/06/26 09:21:39;;;;;;;7.32;1.50;;;;;;;21.42;85.68;101841.88;5031288;28;20025;-56
2023/06/26 09:24:07;;;;;;;3.60;1.35;;;;;;;21.58;85.77;101834.56;5025038;28;20553;-58
2023/06/26 09:26:33;;;;;;;7.88;1.80;;;;;;;21.81;83.82;101844.75;5012394;28;20029;-60
2023/06/26 09:28:58;;;;;;;6.68;1.70;;;;;;;21.95;83.99;101842.00;5016111;28;20083;-58
2023/06/26 09:31:23;;;;;;;8.20;1.55;;;;;;;22.01;83.91;101856.00;5038782;28;20037;-61
2023/06/26 09:33:59;;;;;;;6.22;1.90;;;;;;;21.84;82.97;101866.91;5037787;28;20064;-61
2023/06/26 09:36:27;;;;;;;6.50;1.73;;;;;;;22.04;81.91;101862.03;5042287;28;20476;-61
2023/06/26 09:38:53;;;;;;;8.43;2.03;;;;;;;22.05;82.75;101865.56;5036163;28;20063;-56
2023/06/26 09:41:19;;;;;;;5.40;1.40;;;;;;;22.34;83.26;101860.06;5043642;28;20029;-59
2023/06/26 09:43:49;;;;;;;6.70;1.70;;;;;;;22.39;81.89;101868.63;5013415;28;20429;-59
2023/06/26 09:46:24;;;;;;;4.25;1.48;;;;;;;22.70;79.69;101861.19;5044051;28;20032;-59
2023/06/26 09:48:50;;;;;;;5.93;2.10;;;;;;;22.82;78.42;101872.06;5023534;28;20319;-56
2023/06/26 09:51:16;;;;;;;9.07;1.83;;;;;;;22.71;77.56;101897.84;5036168;28;20022;-60
2023/06/26 09:53:42;;;;;;;6.57;2.25;;;;;;;22.80;77.12;101882.03;5015448;28;20029;-56
2023/06/26 09:56:08;;;;;;;5.47;2.15;;;;;;;22.75;78.67;101892.25;5031042;28;20026;-60
2023/06/26 09:58:33;;;;;;;6.72;1.70;;;;;;;23.12;76.62;101886.97;5013809;28;20021;-60
2023/06/26 10:00:59;;;;;;;6.38;1.98;;;;;;;22.90;78.16;101888.47;5015093;28;20047;-60
2023/06/26 10:03:24;;;;;;;6.47;1.63;;;;;;;23.08;75.92;101897.06;5038979;28;20064;-60
2023/06/26 10:05:50;;;;;;;6.30;2.42;;;;;;;22.95;77.32;101904.28;5037902;28;20465;-63
2023/06/26 10:08:16;;;;;;;4.47;1.80;;;;;;;23.16;77.14;101887.59;5015873;28;20033;-60
2023/06/26 10:10:41;;;;;;;6.82;1.85;;;;;;;22.80;79.84;101890.09;5014423;28;20037;-61
2023/06/26 10:13:16;;;;;;;5.28;1.90;;;;;;;22.97;78.64;101905.06;5031610;28;20061;-61
2023/06/26 10:15:43;;;;;;;9.48;2.00;;;;;;;23.10;78.95;101907.72;5037320;28;20021;-58
2023/06/26 10:18:09;;;;;;;8.43;1.55;;;;;;;23.13;77.49;101899.44;5026776;28;20064;-61
2023/06/26 10:20:35;;;;;;;5.93;1.85;;;;;;;23.03;77.04;101918.03;5047970;28;20047;-58
2023/06/26 10:23:01;;;;;;;7.78;1.80;;;;;;;22.92;75.99;101918.81;5032689;28;20029;-60
2023/06/26 10:25:27;;;;;;;7.93;1.70;;;;;;;22.72;76.87;101906.75;5027710;28;20512;-55
2023/06/26 10:27:55;;;;;;;9.65;1.95;;;;;;;22.45;76.99;101908.50;5026400;28;20033;-61
2023/06/26 10:30:23;;;;;;;5.30;1.80;;;;;;;22.56;78.02;101899.72;5027788;28;20077;-62
2023/06/26 10:32:49;;;;;;;4.10;1.77;;;;;;;23.00;76.91;101914.72;5008615;28;20034;-56
2023/06/26 10:35:15;;;;;;;5.35;1.77;;;;;;;23.12;76.08;101910.31;5025810;28;20013;-55
2023/06/26 10:37:41;;;;;;;4.95;1.58;;;;;;;23.26;74.29;101917.41;5016251;28;20033;-59
2023/06/26 10:40:07;;;;;;;3.83;1.40;;;;;;;23.29;72.59;101918.03;5046474;28;20466;-58
2023/06/26 10:42:37;;;;;;;3.95;1.70;;;;;;;23.21;72.77;101925.78;5045567;28;20393;-58
2023/06/26 10:45:17;;;;;;;3.22;1.30;;;;;;;23.12;73.44;101930.00;5030090;28;20419;-60
2023/06/26 10:47:47;;;;;;;6.47;1.17;;;;;;;23.03;70.79;101938.69;5046388;28;20032;-59
2023/06/26 10:50:35;;;;;;;7.00;1.52;;;;;;;22.76;71.64;101939.63;5044386;28;20029;-61
2023/06/26 10:53:24;;;;;;;5.43;1.70;;;;;;;22.83;71.03;101946.31;5037601;28;20029;-60
2023/06/26 10:55:57;;;;;;;4.60;1.45;;;;;;;22.85;69.39;101949.75;5034860;28;20083;-63
2023/06/26 10:58:32;;;;;;;2.28;0.95;;;;;;;23.17;68.85;101930.50;5042186;28;20029;-60
2023/06/26 11:01:17;;;;;;;4.80;1.20;;;;;;;23.29;68.94;101941.34;5041129;28;20029;-61
2023/06/26 11:04:02;;;;;;;7.10;1.58;;;;;;;23.41;68.55;101951.28;5020671;28;20032;-54
2023/06/26 11:06:28;;;;;;;11.70;2.03;;;;;;;23.65;68.34;101961.25;5033165;28;20029;-58
2023/06/26 11:09:23;;;;;;;4.80;1.30;;;;;;;23.88;63.23;101956.00;5036771;28;20031;-56
2023/06/26 11:11:51;;;;;;;1.83;1.08;;;;;;;23.98;64.47;101954.38;5033677;28;20101;-59
2023/06/26 11:14:24;;;;;;;3.42;1.20;;;;;;;24.04;65.03;101960.25;5036260;28;20436;-57
2023/06/26 11:16:50;;;;;;;4.00;1.45;;;;;;;24.21;64.54;101972.50;5036538;28;20031;-59